createdAt,value
2023-01-19T00:01:37.843Z,14.73
2023-01-19T00:04:06.524Z,15.90
2023-01-19T00:06:34.455Z,19.10
2023-01-19T00:09:03.000Z,16.80
2023-01-19T00:11:30.739Z,19.67
2023-01-19T00:13:58.775Z,20.00
2023-01-19T00:16:28.212Z,17.57
2023-01-19T00:18:56.132Z,15.00
2023-01-19T00:21:24.543Z,14.60
2023-01-19T00:23:52.818Z,16.47
2023-01-19T00:26:22.178Z,18.13
2023-01-19T00:28:50.268Z,22.37
2023-01-19T00:31:21.587Z,21.23
2023-01-19T00:33:52.769Z,21.17
2023-01-19T00:36:20.832Z,23.30
2023-01-19T00:38:48.673Z,21.43
2023-01-19T00:41:16.715Z,15.03
2023-01-19T00:43:44.882Z,20.73
2023-01-19T00:46:12.755Z,16.80
2023-01-19T00:48:40.618Z,19.77
2023-01-19T00:51:09.725Z,21.07
2023-01-19T00:53:37.509Z,23.73
2023-01-19T00:56:09.018Z,18.10
2023-01-19T00:58:38.019Z,16.80
2023-01-19T01:01:06.056Z,18.93
2023-01-19T01:03:33.931Z,15.70
2023-01-19T01:06:03.567Z,12.77
2023-01-19T01:08:33.300Z,15.20
2023-01-19T01:11:02.100Z,23.90
2023-01-19T01:13:30.344Z,15.67
2023-01-19T01:15:58.477Z,18.93
2023-01-19T01:18:26.411Z,15.57
2023-01-19T01:21:01.202Z,18.80
2023-01-19T01:23:29.305Z,24.53
2023-01-19T01:25:58.485Z,24.63
2023-01-19T01:28:27.040Z,20.83
2023-01-19T01:30:56.037Z,22.50
2023-01-19T01:33:40.624Z,19.20
2023-01-19T01:36:11.685Z,23.73
2023-01-19T01:38:40.821Z,19.80
2023-01-19T01:41:10.030Z,18.43
2023-01-19T01:43:48.080Z,28.10
2023-01-19T01:46:17.905Z,23.87
2023-01-19T01:48:54.839Z,23.63
2023-01-19T01:51:28.465Z,23.17
2023-01-19T01:54:14.033Z,24.73
2023-01-19T01:56:46.551Z,29.20
2023-01-19T01:59:25.928Z,22.70
2023-01-19T02:02:15.848Z,27.27
2023-01-19T02:04:49.087Z,23.07
2023-01-19T02:07:46.050Z,20.10
2023-01-19T02:10:32.445Z,21.83
2023-01-19T02:13:21.780Z,18.13
2023-01-19T02:15:52.908Z,15.87
2023-01-19T02:18:24.082Z,19.60
2023-01-19T02:21:05.779Z,22.03
2023-01-19T02:23:46.075Z,17.50
2023-01-19T02:26:19.353Z,15.27
2023-01-19T02:28:53.258Z,15.30
2023-01-19T02:31:21.338Z,26.57
2023-01-19T02:33:49.469Z,18.43
2023-01-19T02:36:23.080Z,23.37
2023-01-19T02:38:56.600Z,23.00
2023-01-19T02:41:34.213Z,20.03
2023-01-19T02:44:04.532Z,25.20
2023-01-19T02:46:33.321Z,28.70
2023-01-19T02:49:01.528Z,32.93
2023-01-19T02:51:29.476Z,26.03
2023-01-19T02:54:18.337Z,33.77
2023-01-19T02:57:12.930Z,38.40
2023-01-19T02:59:58.478Z,36.70
2023-01-19T03:02:43.106Z,29.42
2023-01-19T03:05:36.450Z,33.77
2023-01-19T03:08:16.003Z,36.70
2023-01-19T03:10:57.889Z,43.63
2023-01-19T03:13:37.236Z,34.93
2023-01-19T03:16:14.532Z,36.73
2023-01-19T03:18:49.549Z,40.33
2023-01-19T03:21:22.343Z,32.10
2023-01-19T03:23:55.255Z,30.00
2023-01-19T03:26:30.661Z,45.07
2023-01-19T03:29:03.404Z,46.35
2023-01-19T03:31:33.766Z,32.07
2023-01-19T03:34:08.084Z,51.57
2023-01-19T03:36:43.320Z,41.27
2023-01-19T03:39:15.115Z,35.80
2023-01-19T03:41:50.200Z,52.80
2023-01-19T03:44:18.504Z,41.33
2023-01-19T03:46:47.995Z,40.43
2023-01-19T03:49:16.734Z,26.90
2023-01-19T03:51:45.210Z,37.23
2023-01-19T03:54:12.976Z,30.27
2023-01-19T03:56:40.871Z,36.67
2023-01-19T03:59:10.081Z,43.50
2023-01-19T04:01:38.002Z,36.83
2023-01-19T04:04:06.027Z,37.17
2023-01-19T04:06:33.794Z,42.40
2023-01-19T04:09:01.667Z,40.73
2023-01-19T04:11:29.879Z,36.97
2023-01-19T04:13:57.904Z,31.97
2023-01-19T04:16:27.291Z,37.10
2023-01-19T04:18:55.632Z,43.00
2023-01-19T04:21:23.388Z,38.07
2023-01-19T04:23:53.067Z,40.30
2023-01-19T04:26:21.115Z,44.13
2023-01-19T04:28:48.949Z,50.63
2023-01-19T04:31:16.824Z,39.70
2023-01-19T04:33:45.957Z,38.63
2023-01-19T04:36:13.709Z,41.10
2023-01-19T04:38:41.727Z,30.97
2023-01-19T04:41:09.853Z,40.57
2023-01-19T04:43:37.766Z,38.90
2023-01-19T04:46:05.785Z,34.97
2023-01-19T04:48:33.842Z,38.43
2023-01-19T04:51:03.335Z,38.10
2023-01-19T04:53:31.189Z,34.13
2023-01-19T04:56:00.625Z,40.53
2023-01-19T04:58:28.361Z,40.77
2023-01-19T05:00:56.215Z,30.60
2023-01-19T05:03:25.685Z,40.77
2023-01-19T05:05:54.391Z,21.73
2023-01-19T05:08:24.493Z,31.93
2023-01-19T05:10:52.318Z,37.77
2023-01-19T05:13:20.257Z,40.67
2023-01-19T05:15:48.068Z,34.07
2023-01-19T05:18:16.103Z,36.37
2023-01-19T05:20:43.838Z,28.10
2023-01-19T05:23:11.781Z,42.33
2023-01-19T05:25:42.910Z,32.77
2023-01-19T05:28:11.367Z,23.70
2023-01-19T05:30:39.395Z,39.10
2023-01-19T05:33:07.142Z,18.93
2023-01-19T05:35:36.649Z,20.00
2023-01-19T05:38:04.593Z,13.67
2023-01-19T05:40:32.455Z,13.70
2023-01-19T05:43:05.118Z,10.20
2023-01-19T05:45:34.110Z,16.17
2023-01-19T05:48:02.295Z,17.10
2023-01-19T05:50:30.151Z,14.97
2023-01-19T05:52:59.064Z,17.43
2023-01-19T05:55:28.840Z,19.93
2023-01-19T05:57:56.563Z,17.43
2023-01-19T06:00:27.466Z,22.47
2023-01-19T06:02:55.334Z,11.93
2023-01-19T06:05:23.060Z,14.40
2023-01-19T06:07:50.768Z,24.90
2023-01-19T06:10:18.692Z,14.40
2023-01-19T06:12:46.438Z,18.00
2023-01-19T06:15:15.321Z,17.57
2023-01-19T06:17:44.569Z,14.43
2023-01-19T06:20:15.973Z,15.50
2023-01-19T06:22:43.949Z,15.07
2023-01-19T06:25:11.939Z,14.60
2023-01-19T06:27:45.204Z,17.40
2023-01-19T06:30:13.964Z,18.80
2023-01-19T06:32:41.869Z,13.60
2023-01-19T06:35:12.174Z,11.50
2023-01-19T06:37:41.508Z,20.07
2023-01-19T06:40:13.618Z,10.93
2023-01-19T06:42:42.641Z,13.20
2023-01-19T06:45:11.201Z,7.87
2023-01-19T06:47:39.099Z,12.27
2023-01-19T06:50:08.237Z,12.60
2023-01-19T06:52:42.293Z,12.93
2023-01-19T06:55:11.148Z,11.87
2023-01-19T06:57:40.459Z,12.27
2023-01-19T07:00:11.721Z,9.17
2023-01-19T07:02:42.889Z,13.03
2023-01-19T07:05:14.209Z,12.20
2023-01-19T07:07:44.830Z,9.40
2023-01-19T07:10:15.689Z,11.07
2023-01-19T07:12:46.396Z,11.23
2023-01-19T07:15:15.426Z,11.10
2023-01-19T07:17:43.586Z,11.37
2023-01-19T07:20:14.296Z,11.10
2023-01-19T07:22:45.649Z,10.93
2023-01-19T07:25:14.676Z,6.93
2023-01-19T07:27:42.792Z,4.43
2023-01-19T07:30:11.756Z,10.00
2023-01-19T07:32:39.524Z,9.40
2023-01-19T07:35:08.303Z,10.60
2023-01-19T07:37:37.529Z,11.27
2023-01-19T07:40:08.854Z,8.60
2023-01-19T07:42:36.775Z,9.17
2023-01-19T07:45:05.903Z,9.97
2023-01-19T07:47:35.054Z,8.77
2023-01-19T07:50:03.345Z,10.80
2023-01-19T07:52:31.201Z,10.07
2023-01-19T07:54:59.211Z,11.00
2023-01-19T07:57:28.602Z,10.47
2023-01-19T07:59:56.670Z,9.70
2023-01-19T08:02:24.537Z,8.73
2023-01-19T08:04:52.440Z,10.37
2023-01-19T08:07:20.360Z,11.87
2023-01-19T08:09:48.179Z,11.23
2023-01-19T08:12:17.079Z,11.27
2023-01-19T08:14:46.168Z,9.97
2023-01-19T08:17:14.078Z,12.30
2023-01-19T08:19:42.975Z,11.20
2023-01-19T08:22:10.951Z,9.20
2023-01-19T08:24:38.674Z,11.27
2023-01-19T08:27:06.992Z,12.53
2023-01-19T08:29:35.000Z,10.13
2023-01-19T08:32:06.668Z,11.60
2023-01-19T08:34:34.632Z,12.07
2023-01-19T08:37:02.427Z,11.83
2023-01-19T08:39:30.426Z,10.93
2023-01-19T08:41:59.618Z,12.67
2023-01-19T08:44:27.745Z,10.60
2023-01-19T08:46:55.723Z,11.70
2023-01-19T08:49:24.964Z,11.83
2023-01-19T08:51:52.753Z,11.70
2023-01-19T08:54:21.727Z,10.80
2023-01-19T08:56:49.553Z,10.57
2023-01-19T08:59:17.868Z,9.83
2023-01-19T09:01:45.782Z,9.57
2023-01-19T09:04:13.697Z,8.00
2023-01-19T09:06:42.841Z,9.80
2023-01-19T09:09:10.676Z,9.47
2023-01-19T09:11:38.458Z,10.20
2023-01-19T09:14:06.509Z,11.67
2023-01-19T09:16:34.374Z,9.30
2023-01-19T09:19:02.302Z,12.30
2023-01-19T09:21:30.160Z,8.63
2023-01-19T09:23:59.348Z,9.77
2023-01-19T09:26:27.207Z,10.37
2023-01-19T09:28:54.987Z,10.90
2023-01-19T09:31:23.644Z,7.47
2023-01-19T09:33:51.581Z,12.40
2023-01-19T09:36:19.346Z,11.30
2023-01-19T09:38:47.212Z,10.77
2023-01-19T09:41:22.168Z,9.80
2023-01-19T09:43:57.862Z,10.02
2023-01-19T09:46:36.968Z,9.00
2023-01-19T09:49:13.680Z,8.90
2023-01-19T09:51:46.968Z,10.00
2023-01-19T09:54:18.152Z,10.13
2023-01-19T09:56:52.362Z,9.40
2023-01-19T09:59:25.137Z,8.90
2023-01-19T10:02:19.309Z,10.83
2023-01-19T10:04:59.931Z,9.47
2023-01-19T10:07:44.938Z,10.90
2023-01-19T10:10:20.991Z,9.60
2023-01-19T10:13:21.534Z,9.70
2023-01-19T10:16:03.911Z,9.03
2023-01-19T10:18:47.474Z,10.10
2023-01-19T10:21:21.553Z,7.73
2023-01-19T10:23:54.610Z,7.17
2023-01-19T10:26:26.391Z,8.00
2023-01-19T10:29:02.546Z,7.30
2023-01-19T10:31:35.779Z,6.67
2023-01-19T10:34:03.951Z,7.37
2023-01-19T10:36:37.505Z,7.10
2023-01-19T10:39:06.940Z,7.00
2023-01-19T10:41:42.187Z,6.40
2023-01-19T10:44:12.027Z,7.70
2023-01-19T10:46:44.904Z,7.40
2023-01-19T10:49:27.641Z,8.50
2023-01-19T10:51:58.229Z,9.33
2023-01-19T10:54:29.521Z,9.50
2023-01-19T10:57:01.231Z,9.87
2023-01-19T10:59:37.332Z,9.23
2023-01-19T11:02:19.337Z,9.50
2023-01-19T11:04:50.188Z,8.73
2023-01-19T11:07:22.659Z,11.33
2023-01-19T11:10:22.963Z,10.13
2023-01-19T11:13:03.675Z,12.00
2023-01-19T11:15:40.868Z,11.97
2023-01-19T11:18:21.431Z,13.77
2023-01-19T11:20:53.854Z,16.63
2023-01-19T11:23:28.151Z,14.20
2023-01-19T11:26:00.494Z,12.67
2023-01-19T11:28:33.959Z,14.13
2023-01-19T11:31:18.891Z,12.20
2023-01-19T11:33:51.692Z,13.67
2023-01-19T11:36:22.818Z,13.13
2023-01-19T11:38:53.514Z,15.43
2023-01-19T11:41:26.896Z,14.83
2023-01-19T11:44:04.804Z,12.97
2023-01-19T11:46:40.485Z,15.63
2023-01-19T11:54:29.527Z,13.67
2023-01-19T11:57:00.539Z,14.90
2023-01-19T11:59:28.775Z,14.80
2023-01-19T12:02:02.320Z,12.60
2023-01-19T12:04:36.325Z,13.30
2023-01-19T12:07:12.277Z,11.37
2023-01-19T12:09:47.397Z,11.90
2023-01-19T12:12:28.280Z,10.52
2023-01-19T12:15:05.114Z,11.50
2023-01-19T12:17:40.863Z,11.17
2023-01-19T12:20:24.750Z,10.17
2023-01-19T12:23:09.170Z,10.30
2023-01-19T12:25:58.185Z,10.37
2023-01-19T12:28:32.649Z,9.37
2023-01-19T12:31:01.961Z,9.20
2023-01-19T12:33:37.719Z,8.10
2023-01-19T12:39:11.352Z,8.73
2023-01-19T12:41:41.077Z,7.40
2023-01-19T12:44:30.416Z,7.63
2023-01-19T12:47:05.194Z,7.63
2023-01-19T12:49:43.991Z,9.25
2023-01-19T12:52:31.404Z,8.23
2023-01-19T12:55:17.154Z,8.03
2023-01-19T12:57:55.608Z,8.82
2023-01-19T13:00:34.417Z,7.90
2023-01-19T13:03:25.253Z,7.87
2023-01-19T13:05:56.439Z,8.63
2023-01-19T13:08:30.338Z,8.67
2023-01-19T13:11:19.594Z,9.53
2023-01-19T13:14:34.212Z,10.00
2023-01-19T13:17:28.033Z,9.50
2023-01-19T13:20:22.007Z,9.87
2023-01-19T13:23:21.684Z,9.90
2023-01-19T13:25:54.772Z,9.20
2023-01-19T13:28:32.127Z,9.67
2023-01-19T13:31:02.552Z,9.97
2023-01-19T13:33:48.012Z,10.70
2023-01-19T13:36:23.334Z,11.68
2023-01-19T13:38:53.633Z,11.52
2023-01-19T13:41:25.175Z,16.20
2023-01-19T13:44:01.697Z,12.67
2023-01-19T13:46:31.764Z,23.47
2023-01-19T13:49:05.486Z,23.03
2023-01-19T13:51:33.381Z,27.97
2023-01-19T13:54:02.750Z,18.37
2023-01-19T13:56:30.841Z,11.67
2023-01-19T13:59:02.187Z,11.83
2023-01-19T14:01:31.266Z,11.37
2023-01-19T14:04:00.005Z,12.23
2023-01-19T14:06:40.455Z,17.67
2023-01-19T14:09:16.879Z,12.90
2023-01-19T14:11:47.700Z,11.80
2023-01-19T14:14:25.794Z,14.50
2023-01-19T14:16:54.355Z,17.43
2023-01-19T14:19:22.290Z,12.63
2023-01-19T14:22:01.138Z,13.17
2023-01-19T14:24:33.099Z,11.83
2023-01-19T14:27:18.744Z,13.87
2023-01-19T14:29:50.392Z,12.52
2023-01-19T14:32:21.766Z,13.00
2023-01-19T14:34:53.642Z,12.47
2023-01-19T14:37:26.489Z,12.70
2023-01-19T14:40:01.831Z,10.43
2023-01-19T14:42:34.742Z,11.10
2023-01-19T14:45:12.415Z,13.20
2023-01-19T14:47:44.355Z,12.77
2023-01-19T14:50:23.844Z,12.83
2023-01-19T14:52:59.443Z,11.33
2023-01-19T14:55:39.630Z,15.27
2023-01-19T14:58:12.022Z,14.10
2023-01-19T15:00:40.287Z,12.83
2023-01-19T15:03:09.919Z,24.47
2023-01-19T15:05:39.422Z,21.67
2023-01-19T15:08:08.505Z,21.40
2023-01-19T15:10:37.809Z,34.40
2023-01-19T15:13:05.864Z,32.10
2023-01-19T15:15:35.686Z,30.37
2023-01-19T15:18:06.811Z,25.33
2023-01-19T15:20:34.788Z,17.77
2023-01-19T15:23:02.676Z,34.70
2023-01-19T15:25:31.465Z,43.93
2023-01-19T15:28:02.087Z,28.17
2023-01-19T15:30:33.975Z,22.07
2023-01-19T15:33:02.350Z,24.23
2023-01-19T15:35:30.630Z,21.63
2023-01-19T15:37:58.631Z,18.53
2023-01-19T15:40:26.656Z,21.43
2023-01-19T15:42:54.534Z,26.17
2023-01-19T15:45:34.430Z,27.23
2023-01-19T15:48:05.392Z,26.10
2023-01-19T15:50:35.833Z,20.10
2023-01-19T15:53:03.898Z,32.90
2023-01-19T15:55:31.977Z,30.77
2023-01-19T15:58:02.775Z,33.80
2023-01-19T16:00:34.189Z,35.10
2023-01-19T16:03:03.417Z,52.70
2023-01-19T16:05:42.476Z,29.17
2023-01-19T16:08:12.017Z,21.90
2023-01-19T16:10:40.366Z,21.47
2023-01-19T16:13:09.220Z,19.60
2023-01-19T16:15:53.666Z,18.93
2023-01-19T16:18:21.721Z,19.50
2023-01-19T16:20:49.584Z,19.27
2023-01-19T16:23:17.400Z,19.60
2023-01-19T16:25:55.272Z,22.63
2023-01-19T16:28:23.649Z,23.77
2023-01-19T16:30:53.294Z,22.23
2023-01-19T16:33:21.280Z,21.97
2023-01-19T16:35:49.497Z,20.97
2023-01-19T16:38:17.484Z,21.33
2023-01-19T16:40:46.577Z,21.93
2023-01-19T16:43:15.241Z,21.53
2023-01-19T16:45:59.557Z,22.53
2023-01-19T16:48:28.694Z,22.10
2023-01-19T16:51:03.196Z,22.80
2023-01-19T16:53:37.185Z,22.90
2023-01-19T16:56:06.664Z,23.70
2023-01-19T16:58:38.195Z,23.57
2023-01-19T17:01:14.722Z,22.83
2023-01-19T17:03:43.267Z,24.90
2023-01-19T17:06:13.901Z,24.47
2023-01-19T17:08:41.935Z,25.40
2023-01-19T17:11:13.501Z,26.07
2023-01-19T17:13:41.464Z,26.57
2023-01-19T17:16:11.078Z,29.80
2023-01-19T17:18:39.066Z,45.40
2023-01-19T17:21:10.142Z,43.00
2023-01-19T17:23:43.529Z,27.57
2023-01-19T17:26:11.688Z,28.57
2023-01-19T17:28:40.344Z,23.40
2023-01-19T17:31:12.198Z,21.93
2023-01-19T17:33:42.900Z,24.63
2023-01-19T17:36:14.859Z,22.87
2023-01-19T17:38:43.292Z,21.77
2023-01-19T17:41:16.505Z,22.10
2023-01-19T17:43:45.710Z,24.30
2023-01-19T17:46:14.940Z,24.37
2023-01-19T17:48:42.779Z,20.60
2023-01-19T17:51:13.081Z,20.63
2023-01-19T17:53:42.409Z,21.93
2023-01-19T17:56:13.930Z,23.03
2023-01-19T17:58:42.823Z,18.63
2023-01-19T18:01:13.709Z,20.43
2023-01-19T18:03:43.716Z,21.93
2023-01-19T18:06:11.991Z,24.60
2023-01-19T18:08:42.753Z,24.67
2023-01-19T18:11:11.887Z,22.33
2023-01-19T18:13:43.339Z,23.80
2023-01-19T18:16:14.871Z,17.37
2023-01-19T18:18:44.370Z,20.93
2023-01-19T18:21:14.967Z,24.33
2023-01-19T18:23:43.457Z,22.70
2023-01-19T18:26:37.954Z,23.07
2023-01-19T18:29:05.791Z,23.20
2023-01-19T18:31:33.655Z,33.77
2023-01-19T18:34:01.575Z,35.63
2023-01-19T18:36:31.958Z,39.33
2023-01-19T18:39:01.145Z,42.27
2023-01-19T18:41:29.860Z,39.87
2023-01-19T18:43:59.696Z,45.83
2023-01-19T18:46:27.727Z,39.87
2023-01-19T18:48:55.807Z,34.43
2023-01-19T18:51:23.676Z,25.70
2023-01-19T18:53:51.767Z,27.57
2023-01-19T18:56:19.832Z,21.33
2023-01-19T18:58:47.923Z,19.93
2023-01-19T19:01:24.061Z,18.77
2023-01-19T19:03:52.763Z,20.37
2023-01-19T19:06:22.229Z,20.03
2023-01-19T19:08:52.098Z,20.63
2023-01-19T19:11:22.478Z,20.67
2023-01-19T19:13:53.029Z,19.83
2023-01-19T19:16:23.104Z,21.57
2023-01-19T19:18:51.297Z,22.23
2023-01-19T19:21:21.293Z,18.17
2023-01-19T19:23:53.953Z,23.20
2023-01-19T19:26:24.450Z,20.80
2023-01-19T19:28:52.727Z,20.17
2023-01-19T19:31:25.896Z,21.77
2023-01-19T19:33:55.437Z,22.10
2023-01-19T19:36:24.643Z,22.07
2023-01-19T19:38:52.482Z,21.13
2023-01-19T19:41:24.233Z,21.67
2023-01-19T19:43:52.419Z,39.20
2023-01-19T19:46:24.176Z,33.90
2023-01-19T19:48:53.660Z,28.97
2023-01-19T19:51:25.302Z,24.43
2023-01-19T19:53:56.641Z,22.27
2023-01-19T19:56:27.955Z,28.63
2023-01-19T19:58:58.956Z,31.03
2023-01-19T20:01:33.513Z,38.33
2023-01-19T20:04:06.747Z,37.13
2023-01-19T20:06:39.729Z,26.70
2023-01-19T20:09:10.784Z,24.10
2023-01-19T20:11:39.943Z,22.67
2023-01-19T20:14:10.759Z,22.93
2023-01-19T20:16:40.901Z,23.33
2023-01-19T20:19:08.861Z,27.10
2023-01-19T20:21:41.655Z,26.40
2023-01-19T20:24:13.831Z,42.03
2023-01-19T20:26:45.253Z,35.07
2023-01-19T20:29:13.241Z,33.77
2023-01-19T20:31:46.820Z,30.30
2023-01-19T20:34:17.987Z,32.77
2023-01-19T20:36:49.747Z,37.03
2023-01-19T20:39:18.652Z,29.00
2023-01-19T20:41:48.498Z,34.20
2023-01-19T20:44:20.102Z,43.03
2023-01-19T20:46:53.395Z,50.77
2023-01-19T20:49:22.794Z,44.27
2023-01-19T20:51:51.893Z,39.57
2023-01-19T20:54:24.486Z,30.43
2023-01-19T20:56:52.559Z,25.40
2023-01-19T20:59:20.394Z,26.03
2023-01-19T21:01:50.338Z,26.97
2023-01-19T21:04:18.885Z,25.00
2023-01-19T21:06:47.197Z,25.30
2023-01-19T21:09:14.960Z,27.60
2023-01-19T21:11:42.727Z,40.63
2023-01-19T21:14:10.703Z,50.27
2023-01-19T21:16:38.830Z,36.07
2023-01-19T21:19:08.045Z,27.30
2023-01-19T21:21:36.138Z,27.87
2023-01-19T21:24:04.761Z,26.47
2023-01-19T21:26:33.560Z,24.83
2023-01-19T21:29:04.102Z,27.43
2023-01-19T21:31:32.037Z,25.27
2023-01-19T21:34:00.043Z,23.83
2023-01-19T21:36:29.222Z,23.37
2023-01-19T21:39:00.388Z,25.10
2023-01-19T21:41:30.094Z,23.83
2023-01-19T21:44:00.132Z,23.47
2023-01-19T21:46:29.515Z,24.17
2023-01-19T21:48:59.019Z,24.97
2023-01-19T21:51:27.212Z,23.53
2023-01-19T21:53:59.427Z,24.47
2023-01-19T21:56:29.177Z,24.70
2023-01-19T21:58:59.475Z,24.57
2023-01-19T22:01:27.548Z,25.03
2023-01-19T22:03:57.493Z,26.07
2023-01-19T22:06:27.333Z,24.30
2023-01-19T22:08:58.304Z,24.17
2023-01-19T22:11:27.270Z,24.53
2023-01-19T22:13:55.126Z,27.47
2023-01-19T22:16:23.650Z,25.60
2023-01-19T22:18:54.116Z,26.53
2023-01-19T22:21:27.009Z,25.97
2023-01-19T22:23:59.151Z,25.60
2023-01-19T22:26:28.781Z,27.23
2023-01-19T22:28:59.420Z,25.47
2023-01-19T22:31:29.524Z,25.03
2023-01-19T22:33:57.749Z,23.97
2023-01-19T22:36:28.065Z,23.63
2023-01-19T22:39:00.189Z,25.57
2023-01-19T22:41:33.039Z,22.97
2023-01-19T22:44:03.321Z,23.53
2023-01-19T22:46:33.986Z,23.43
2023-01-19T22:49:02.797Z,26.00
2023-01-19T22:51:33.443Z,23.67
2023-01-19T22:54:03.239Z,22.60
2023-01-19T22:56:33.334Z,25.00
2023-01-19T22:59:02.362Z,24.97
2023-01-19T23:01:33.677Z,24.50
2023-01-19T23:04:19.198Z,25.40
